Time;durP1;ratioP1;P1;durP2;ratioP2;P2;SDS_P1;SDS_P2;PMS_P1;PMS_P2;Temp;Humidity;BMP_temperature;BMP_pressure;BME280_temperature;BME280_humidity;BME280_pressure;Samples;Min_cycle;Max_cycle;Signal;HPM_P1;HPM_P2
2024/03/19 00:02:13;;;;;;;0.70;0.70;;;;;;;1.90;85.24;98729.71;107448;1254;67583;-37
2024/03/19 00:04:40;;;;;;;0.70;0.70;;;;;;;1.87;85.28;98725.36;107429;1255;72658;-37
2024/03/19 00:07:07;;;;;;;0.60;0.60;;;;;;;1.93;84.89;98718.02;107391;1254;61482;-37
2024/03/19 00:09:35;;;;;;;0.50;0.50;;;;;;;2.00;84.66;98721.67;106672;1255;1002855;-37
2024/03/19 00:12:02;;;;;;;0.70;0.70;;;;;;;1.99;84.81;98713.41;107255;1254;74145;-37
2024/03/19 00:14:29;;;;;;;0.50;0.50;;;;;;;1.93;84.87;98706.83;107290;1255;67887;-37
2024/03/19 00:16:57;;;;;;;0.50;0.50;;;;;;;1.87;85.21;98702.59;107202;1254;71443;-37
2024/03/19 00:19:24;;;;;;;0.60;0.50;;;;;;;1.83;85.39;98696.45;107142;1256;61277;-37
2024/03/19 00:21:52;;;;;;;0.40;0.40;;;;;;;1.96;85.27;98697.83;107338;1254;61327;-37
2024/03/19 00:24:19;;;;;;;0.60;0.60;;;;;;;2.07;85.01;98696.30;107342;1255;73520;-37
2024/03/19 00:26:46;;;;;;;0.60;0.50;;;;;;;2.11;85.19;98696.86;107206;1256;67522;-37
2024/03/19 00:29:15;;;;;;;0.90;0.80;;;;;;;2.16;85.27;98685.70;107227;1255;72761;-37
2024/03/19 00:31:42;;;;;;;0.70;0.70;;;;;;;2.23;85.20;98680.46;107178;1254;61178;-37
2024/03/19 00:34:10;;;;;;;1.10;0.70;;;;;;;2.29;85.17;98687.27;107408;1253;59985;-37
2024/03/19 00:36:37;;;;;;;0.70;0.70;;;;;;;2.38;84.59;98685.27;107519;1254;74590;-37
2024/03/19 00:39:10;;;;;;;0.60;0.60;;;;;;;2.46;84.11;98683.91;107496;1254;67602;-37
2024/03/19 00:41:38;;;;;;;0.50;0.50;;;;;;;2.52;84.22;98681.55;107302;1256;70464;-37
2024/03/19 00:44:05;;;;;;;0.70;0.60;;;;;;;2.50;83.95;98672.29;107247;1256;61225;-37
2024/03/19 00:46:33;;;;;;;1.60;0.80;;;;;;;2.55;84.01;98679.75;107273;1255;61322;-37
2024/03/19 00:49:01;;;;;;;0.70;0.70;;;;;;;2.54;83.40;98679.25;107268;1255;74684;-37
2024/03/19 00:51:28;;;;;;;0.50;0.50;;;;;;;2.57;83.05;98676.63;107246;1256;66616;-37
2024/03/19 00:53:57;;;;;;;0.60;0.60;;;;;;;2.63;82.82;98674.54;107150;1255;72755;-37
2024/03/19 00:56:25;;;;;;;1.20;0.80;;;;;;;2.61;82.52;98674.11;107142;1254;61353;-37
2024/03/19 00:58:52;;;;;;;0.50;0.50;;;;;;;2.54;82.38;98668.42;107306;1254;61367;-37
2024/03/19 01:01:19;;;;;;;0.70;0.70;;;;;;;2.44;82.47;98664.00;107393;1254;74670;-37
2024/03/19 01:03:47;;;;;;;0.60;0.60;;;;;;;2.30;82.44;98653.70;107370;1254;68091;-37
2024/03/19 01:06:16;;;;;;;0.80;0.60;;;;;;;2.22;82.52;98653.28;107210;1256;71401;-37
2024/03/19 01:08:43;;;;;;;0.60;0.60;;;;;;;2.21;82.85;98654.02;107313;1255;60424;-37
2024/03/19 01:11:11;;;;;;;0.90;0.70;;;;;;;2.19;83.16;98645.40;107302;1254;61241;-38
2024/03/19 01:13:39;;;;;;;0.60;0.60;;;;;;;2.18;83.61;98648.02;107374;1255;74668;-37
2024/03/19 01:16:07;;;;;;;0.70;0.70;;;;;;;2.20;83.96;98651.90;107233;1255;66604;-37
2024/03/19 01:18:35;;;;;;;0.80;0.70;;;;;;;2.26;83.98;98648.20;107385;1254;72720;-37
2024/03/19 01:21:03;;;;;;;0.80;0.80;;;;;;;2.37;83.87;98645.35;107258;1254;61128;-37
2024/03/19 01:23:30;;;;;;;0.70;0.70;;;;;;;2.47;83.44;98638.61;107361;1258;61248;-37
2024/03/19 01:25:58;;;;;;;1.00;0.90;;;;;;;2.48;83.28;98635.46;107379;1254;74687;-38
2024/03/19 01:28:25;;;;;;;0.80;0.80;;;;;;;2.49;83.54;98634.95;107317;1256;66668;-37
2024/03/19 01:30:53;;;;;;;1.00;0.90;;;;;;;2.53;83.64;98628.33;107412;1256;71420;-37
2024/03/19 01:33:20;;;;;;;1.10;1.00;;;;;;;2.57;83.35;98627.46;107201;1254;61282;-37
2024/03/19 01:35:48;;;;;;;1.30;1.10;;;;;;;2.61;83.20;98626.48;107312;1255;61079;-37
2024/03/19 01:38:15;;;;;;;1.30;1.00;;;;;;;2.71;82.64;98627.62;107218;1254;74687;-37
2024/03/19 01:40:46;;;;;;;1.10;0.90;;;;;;;2.80;82.33;98628.55;107270;1254;66312;-37
2024/03/19 01:43:14;;;;;;;1.20;1.10;;;;;;;2.82;82.33;98627.81;107419;1256;71468;-37
2024/03/19 01:45:41;;;;;;;1.70;1.20;;;;;;;2.87;82.49;98620.39;107354;1256;61108;-37
2024/03/19 01:48:08;;;;;;;1.10;1.00;;;;;;;2.89;82.18;98617.98;107292;1255;61128;-37
2024/03/19 01:50:37;;;;;;;1.40;1.30;;;;;;;2.89;81.91;98621.26;107162;1256;74602;-37
2024/03/19 01:53:04;;;;;;;2.30;2.10;;;;;;;2.89;81.98;98619.27;107312;1254;67600;-37
2024/03/19 01:55:31;;;;;;;1.80;1.40;;;;;;;2.96;81.58;98624.29;107276;1254;72671;-37
2024/03/19 01:57:59;;;;;;;2.00;1.80;;;;;;;3.04;80.96;98627.02;107262;1254;61585;-37
2024/03/19 02:00:26;;;;;;;2.60;1.70;;;;;;;3.03;80.96;98619.04;107294;1254;61124;-37
2024/03/19 02:02:54;;;;;;;2.20;1.70;;;;;;;3.06;81.36;98621.05;107342;1258;74700;-37
2024/03/19 02:05:22;;;;;;;2.60;2.00;;;;;;;3.11;81.31;98619.22;107356;1256;66318;-38
2024/03/19 02:07:49;;;;;;;4.80;1.80;;;;;;;3.12;80.92;98620.88;107265;1256;71393;-37
2024/03/19 02:10:17;;;;;;;2.20;2.00;;;;;;;3.13;80.88;98626.05;107288;1254;61226;-38
2024/03/19 02:12:44;;;;;;;2.30;1.70;;;;;;;3.14;80.65;98626.45;107283;1254;61090;-37
2024/03/19 02:15:11;;;;;;;1.90;1.60;;;;;;;3.22;80.30;98623.77;107292;1253;73384;-37
2024/03/19 02:17:39;;;;;;;2.50;1.80;;;;;;;3.30;79.81;98623.86;107249;1258;67704;-37
2024/03/19 02:20:12;;;;;;;1.60;1.50;;;;;;;3.24;79.91;98628.81;107287;1255;72692;-37
2024/03/19 02:22:43;;;;;;;4.70;1.50;;;;;;;3.19;80.10;98629.08;107282;1256;61115;-37
2024/03/19 02:28:11;;;;;;;4.50;2.00;;;;;;;3.18;79.98;98624.45;104223;1292;600341;-37
2024/03/19 02:30:38;;;;;;;3.70;3.00;;;;;;;3.12;80.13;98625.85;106562;1267;59391;-37
2024/03/19 02:33:06;;;;;;;8.60;3.90;;;;;;;3.17;80.03;98628.53;106665;1266;60011;-37
2024/03/19 02:35:33;;;;;;;7.60;4.30;;;;;;;3.21;80.14;98624.77;106708;1267;71807;-37
2024/03/19 02:38:01;;;;;;;6.70;3.90;;;;;;;3.18;80.52;98624.61;106723;1267;66597;-37
2024/03/19 02:40:28;;;;;;;10.70;4.30;;;;;;;3.17;80.72;98621.25;106700;1266;72720;-37
2024/03/19 02:42:55;;;;;;;19.10;5.10;;;;;;;3.09;80.75;98626.05;106667;1264;179474;-37
2024/03/19 02:45:23;;;;;;;17.90;4.80;;;;;;;2.94;80.80;98627.70;106785;1264;59736;-37
2024/03/19 02:47:51;;;;;;;25.70;4.80;;;;;;;2.86;81.00;98622.52;106806;1264;71840;-37
2024/03/19 02:50:20;;;;;;;16.10;5.30;;;;;;;2.77;81.50;98625.53;106850;1264;67959;-37
2024/03/19 02:52:47;;;;;;;17.50;5.60;;;;;;;2.62;82.26;98632.23;106803;1264;72696;-37
2024/03/19 02:55:15;;;;;;;18.30;5.80;;;;;;;2.48;82.89;98633.17;106054;1264;1002925;-38
2024/03/19 02:57:44;;;;;;;14.60;5.60;;;;;;;2.39;83.41;98635.33;106717;1264;60115;-37
2024/03/19 03:00:12;;;;;;;13.60;6.40;;;;;;;2.38;84.06;98632.22;106746;1264;74156;-37
2024/03/19 03:02:40;;;;;;;16.90;7.80;;;;;;;2.28;84.66;98642.61;106778;1264;65490;-37
2024/03/19 03:05:08;;;;;;;20.80;8.30;;;;;;;2.12;85.57;98643.66;106726;1265;72678;-37
2024/03/19 03:07:36;;;;;;;19.50;8.10;;;;;;;2.02;86.35;98646.38;106725;1264;59599;-37
2024/03/19 03:10:03;;;;;;;14.40;7.70;;;;;;;2.02;86.70;98648.30;106727;1264;60524;-38
2024/03/19 03:12:32;;;;;;;15.20;8.30;;;;;;;1.96;87.23;98652.70;106797;1264;72545;-37
2024/03/19 03:15:00;;;;;;;11.60;7.10;;;;;;;1.86;87.56;98663.73;106827;1264;66488;-37
2024/03/19 03:17:28;;;;;;;9.80;7.00;;;;;;;1.82;87.65;98668.92;106826;1264;71380;-38
2024/03/19 03:19:56;;;;;;;9.30;6.70;;;;;;;1.87;87.71;98669.61;106856;1264;60235;-38
2024/03/19 03:22:23;;;;;;;10.10;7.30;;;;;;;1.85;87.78;98671.33;106810;1264;60594;-38
2024/03/19 03:24:51;;;;;;;10.50;7.20;;;;;;;1.82;87.77;98679.23;106796;1264;73809;-37
2024/03/19 03:27:18;;;;;;;12.10;7.10;;;;;;;1.81;87.71;98674.84;106788;1264;65586;-37
2024/03/19 03:29:46;;;;;;;11.80;6.60;;;;;;;1.83;87.67;98684.24;106777;1264;72705;-38
2024/03/19 03:32:13;;;;;;;12.30;8.00;;;;;;;1.79;87.83;98687.63;106784;1267;60357;-37
2024/03/19 03:34:42;;;;;;;10.90;7.00;;;;;;;1.69;88.41;98689.77;106781;1264;60283;-38
2024/03/19 03:37:09;;;;;;;9.10;6.60;;;;;;;1.68;88.71;98693.75;106708;1264;72626;-37
2024/03/19 03:39:44;;;;;;;13.40;7.00;;;;;;;1.74;88.40;98691.58;106721;1263;66434;-37
2024/03/19 03:42:12;;;;;;;10.70;7.10;;;;;;;1.73;88.57;98693.13;106760;1264;71413;-38
2024/03/19 03:44:40;;;;;;;10.50;6.60;;;;;;;1.67;88.79;98696.52;106775;1263;60415;-37
2024/03/19 03:47:07;;;;;;;8.80;5.60;;;;;;;1.60;88.95;98687.98;107242;1261;60348;-37
2024/03/19 03:49:35;;;;;;;11.10;6.20;;;;;;;1.69;89.04;98694.64;107175;1257;73850;-37
2024/03/19 03:52:03;;;;;;;11.50;6.80;;;;;;;1.65;89.43;98703.73;107182;1257;67950;-37
2024/03/19 03:54:30;;;;;;;9.70;5.90;;;;;;;1.60;89.51;98699.96;107257;1260;72622;-38
2024/03/19 03:56:57;;;;;;;10.30;6.40;;;;;;;1.62;89.68;98707.05;107166;1257;60551;-37
2024/03/19 03:59:27;;;;;;;10.60;6.00;;;;;;;1.69;89.43;98710.13;107211;1257;60121;-37
2024/03/19 04:01:54;;;;;;;10.60;7.00;;;;;;;1.70;89.59;98713.98;107262;1258;72547;-37
2024/03/19 04:04:21;;;;;;;9.00;5.20;;;;;;;1.68;89.74;98710.38;107289;1257;66291;-37
2024/03/19 04:06:49;;;;;;;10.10;5.50;;;;;;;1.70;89.40;98718.41;107232;1258;72670;-37
2024/03/19 04:09:16;;;;;;;11.20;5.10;;;;;;;1.70;89.15;98722.64;107259;1257;60411;-38
2024/03/19 04:11:44;;;;;;;11.60;5.60;;;;;;;1.64;89.40;98733.27;107282;1256;61080;-37
2024/03/19 04:14:11;;;;;;;8.70;3.90;;;;;;;1.60;89.47;98734.14;107288;1257;73801;-38
2024/03/19 04:16:38;;;;;;;15.00;4.30;;;;;;;1.60;89.43;98737.52;107291;1257;66604;-37
2024/03/19 04:19:05;;;;;;;7.80;3.30;;;;;;;1.57;89.43;98746.16;107278;1260;72686;-37
2024/03/19 04:21:33;;;;;;;9.20;2.80;;;;;;;1.50;89.65;98749.30;107267;1257;60516;-38
2024/03/19 04:24:01;;;;;;;3.60;2.40;;;;;;;1.48;89.64;98750.02;107238;1257;60318;-37
2024/03/19 04:26:29;;;;;;;4.20;2.40;;;;;;;1.48;89.55;98754.67;107186;1257;73375;-37
2024/03/19 04:28:56;;;;;;;5.20;2.10;;;;;;;1.42;89.67;98759.62;107225;1257;67909;-37
2024/03/19 04:31:23;;;;;;;2.50;1.80;;;;;;;1.35;89.78;98760.95;107220;1257;71054;-37
2024/03/19 04:33:51;;;;;;;2.60;2.00;;;;;;;1.40;90.06;98766.46;107251;1257;60251;-37
2024/03/19 04:36:30;;;;;;;7.70;2.60;;;;;;;1.43;90.17;98768.50;107185;1256;60485;-37
2024/03/19 04:38:58;;;;;;;2.70;2.00;;;;;;;1.39;90.24;98772.19;107193;1257;73151;-37
2024/03/19 04:41:27;;;;;;;3.10;2.10;;;;;;;1.39;90.20;98774.02;107306;1257;67937;-37
2024/03/19 04:43:54;;;;;;;2.80;2.30;;;;;;;1.45;89.86;98778.43;107186;1261;71400;-37
2024/03/19 04:46:22;;;;;;;2.60;2.00;;;;;;;1.42;89.90;98778.09;107215;1257;60508;-37
2024/03/19 04:48:49;;;;;;;2.00;1.70;;;;;;;1.37;89.87;98776.05;107201;1261;60421;-38
2024/03/19 04:51:17;;;;;;;2.00;1.80;;;;;;;1.37;89.69;98784.95;107249;1257;72638;-37
2024/03/19 04:53:45;;;;;;;2.20;1.80;;;;;;;1.42;89.51;98785.30;107238;1257;66444;-37
2024/03/19 04:56:12;;;;;;;2.90;2.00;;;;;;;1.39;89.74;98788.92;107294;1257;72704;-37
2024/03/19 04:58:40;;;;;;;2.20;1.70;;;;;;;1.36;89.89;98784.36;107257;1257;60441;-37
2024/03/19 05:01:12;;;;;;;2.20;1.90;;;;;;;1.40;89.62;98789.05;107265;1257;60506;-37
2024/03/19 05:03:41;;;;;;;2.20;1.80;;;;;;;1.41;89.67;98790.24;107275;1257;73843;-37
2024/03/19 05:06:08;;;;;;;1.90;1.60;;;;;;;1.35;90.09;98793.41;107295;1257;66431;-37
2024/03/19 05:08:36;;;;;;;3.30;1.80;;;;;;;1.35;90.22;98794.91;107233;1258;72677;-37
2024/03/19 05:11:03;;;;;;;2.30;2.10;;;;;;;1.40;90.19;98802.25;107241;1263;60281;-37
2024/03/19 05:13:32;;;;;;;2.70;2.40;;;;;;;1.36;90.34;98805.35;107241;1258;60316;-37
2024/03/19 05:16:00;;;;;;;4.40;2.10;;;;;;;1.34;90.47;98807.92;107254;1257;73853;-37
2024/03/19 05:18:27;;;;;;;3.40;2.60;;;;;;;1.40;90.24;98813.84;107275;1257;66726;-37
2024/03/19 05:20:54;;;;;;;3.20;2.70;;;;;;;1.40;90.31;98815.61;107238;1261;71413;-37
2024/03/19 05:23:22;;;;;;;3.70;2.70;;;;;;;1.37;90.56;98819.67;107263;1257;60452;-37
2024/03/19 05:25:49;;;;;;;3.50;3.10;;;;;;;1.40;90.77;98826.91;107204;1258;60368;-38
2024/03/19 05:28:16;;;;;;;4.20;3.10;;;;;;;1.46;90.53;98833.20;107172;1257;73900;-38
2024/03/19 05:30:44;;;;;;;4.00;3.40;;;;;;;1.45;90.36;98843.22;107189;1257;66362;-37
2024/03/19 05:33:11;;;;;;;3.60;3.10;;;;;;;1.41;90.57;98849.44;107241;1257;72668;-37
2024/03/19 05:35:41;;;;;;;3.00;2.70;;;;;;;1.45;90.47;98854.28;107250;1261;61216;-37
2024/03/19 05:38:09;;;;;;;;;;;;;;;1.50;90.34;98857.44;107289;1262;60408;-37
2024/03/19 05:40:37;;;;;;;4.10;3.70;;;;;;;1.49;90.46;98863.41;107284;1260;72586;-37
2024/03/19 05:43:06;;;;;;;3.30;3.00;;;;;;;1.49;90.63;98869.23;107246;1256;67909;-37
2024/03/19 05:45:34;;;;;;;3.40;2.80;;;;;;;1.58;90.20;98869.27;107240;1257;71784;-37
2024/03/19 05:48:04;;;;;;;4.50;3.00;;;;;;;1.61;90.03;98871.43;107282;1261;60456;-37
2024/03/19 05:50:32;;;;;;;3.30;2.90;;;;;;;1.60;90.35;98876.11;107279;1257;60796;-37
2024/03/19 05:53:03;;;;;;;2.40;2.20;;;;;;;1.64;90.14;98877.92;107240;1257;72566;-37
2024/03/19 05:55:30;;;;;;;2.40;2.20;;;;;;;1.75;89.79;98880.59;107293;1257;66278;-37
2024/03/19 05:57:58;;;;;;;2.80;2.50;;;;;;;1.80;89.76;98882.56;107254;1257;72796;-37
2024/03/19 06:00:25;;;;;;;2.80;2.50;;;;;;;1.82;89.51;98888.98;107289;1262;60412;-37
2024/03/19 06:02:52;;;;;;;2.30;2.10;;;;;;;1.82;89.29;98895.33;107251;1263;60284;-37
2024/03/19 06:05:20;;;;;;;2.30;2.10;;;;;;;1.90;88.87;98899.05;107243;1263;73973;-37
2024/03/19 06:07:47;;;;;;;3.00;2.40;;;;;;;1.96;88.75;98899.63;107265;1258;69821;-37
2024/03/19 06:10:15;;;;;;;3.30;2.70;;;;;;;1.99;88.76;98907.84;107259;1260;72769;-37
2024/03/19 06:12:42;;;;;;;2.90;2.40;;;;;;;2.02;88.80;98908.98;107274;1256;60191;-37
2024/03/19 06:15:10;;;;;;;2.50;2.30;;;;;;;2.13;88.29;98915.58;107249;1256;60341;-37
2024/03/19 06:17:37;;;;;;;2.50;2.30;;;;;;;2.22;87.85;98917.34;107285;1257;74221;-37
2024/03/19 06:20:14;;;;;;;3.30;2.90;;;;;;;2.24;87.84;98926.45;107244;1262;66968;-37
2024/03/19 06:22:44;;;;;;;2.30;2.10;;;;;;;2.24;87.40;98930.48;107294;1260;71506;-37
2024/03/19 06:25:12;;;;;;;2.60;2.30;;;;;;;2.24;87.11;98937.09;107243;1258;60431;-37
2024/03/19 06:27:40;;;;;;;2.20;2.00;;;;;;;2.30;86.48;98943.36;107283;1257;60408;-37
2024/03/19 06:30:08;;;;;;;2.70;2.40;;;;;;;2.29;86.28;98948.45;107261;1257;72645;-37
2024/03/19 06:32:35;;;;;;;3.00;2.60;;;;;;;2.25;86.28;98953.70;107282;1260;67568;-37
2024/03/19 06:35:04;;;;;;;2.70;2.40;;;;;;;2.24;86.24;98957.38;107233;1257;71419;-37
2024/03/19 06:37:31;;;;;;;2.50;2.30;;;;;;;2.31;85.79;98967.43;107300;1257;61268;-37
2024/03/19 06:39:59;;;;;;;2.80;2.50;;;;;;;2.33;85.81;98968.44;107277;1258;61222;-37
2024/03/19 06:42:26;;;;;;;2.80;2.40;;;;;;;2.31;86.02;98978.64;107260;1258;74675;-37
2024/03/19 06:44:54;;;;;;;3.40;2.80;;;;;;;2.27;85.71;98984.36;107206;1258;67574;-37
2024/03/19 06:47:23;;;;;;;3.80;2.50;;;;;;;2.30;85.63;98991.22;107189;1257;71502;-37
2024/03/19 06:49:50;;;;;;;4.20;3.10;;;;;;;2.35;85.57;98990.28;107187;1263;61240;-37
2024/03/19 06:52:17;;;;;;;2.70;2.50;;;;;;;2.34;85.48;98993.52;106549;1262;1002967;-37
2024/03/19 06:54:45;;;;;;;3.20;2.80;;;;;;;2.11;85.67;98967.46;107280;1257;74713;-37
2024/03/19 06:57:18;;;;;;;3.00;2.70;;;;;;;2.36;85.51;99000.58;107259;1257;67599;-37
2024/03/19 06:59:46;;;;;;;3.10;2.60;;;;;;;2.41;85.08;98998.85;107201;1263;71879;-37
2024/03/19 07:02:14;;;;;;;3.40;2.80;;;;;;;2.41;85.07;98998.63;107224;1257;60474;-37
2024/03/19 07:04:41;;;;;;;3.40;3.00;;;;;;;2.42;85.21;98999.48;107262;1257;60471;-37
2024/03/19 07:07:09;;;;;;;2.90;2.60;;;;;;;2.44;85.24;99009.29;107219;1258;76774;-37
2024/03/19 07:09:36;;;;;;;3.50;2.70;;;;;;;2.57;85.13;99017.20;107195;1257;67042;-37
2024/03/19 07:12:04;;;;;;;3.80;3.00;;;;;;;2.63;84.83;99027.27;107257;1260;72767;-37
2024/03/19 07:14:32;;;;;;;3.50;3.20;;;;;;;2.61;84.44;99036.82;107215;1261;61459;-37
2024/03/19 07:16:59;;;;;;;5.50;2.80;;;;;;;2.58;84.35;99041.40;107190;1260;61111;-37
2024/03/19 07:19:27;;;;;;;3.00;2.70;;;;;;;2.61;84.10;99047.83;107232;1257;74762;-38
2024/03/19 07:21:54;;;;;;;3.20;2.70;;;;;;;2.71;83.81;99054.67;107247;1260;67802;-38
2024/03/19 07:24:22;;;;;;;3.30;2.70;;;;;;;2.69;83.58;99057.34;107296;1257;73138;-37
2024/03/19 07:26:49;;;;;;;3.10;2.80;;;;;;;2.64;83.63;99064.88;107264;1257;61240;-37
2024/03/19 07:29:17;;;;;;;3.20;2.70;;;;;;;2.60;83.44;99071.89;107268;1258;62207;-37
2024/03/19 07:31:47;;;;;;;3.10;2.80;;;;;;;2.64;83.17;99072.95;107274;1255;74812;-38
2024/03/19 07:34:15;;;;;;;3.10;2.80;;;;;;;2.63;83.20;99070.91;107239;1258;68005;-37
2024/03/19 07:36:42;;;;;;;3.40;3.00;;;;;;;2.58;83.47;99071.08;107047;1262;72096;-37
2024/03/19 07:39:12;;;;;;;3.00;2.70;;;;;;;2.54;83.60;99069.30;107049;1261;60985;-38
2024/03/19 07:41:40;;;;;;;3.90;2.90;;;;;;;2.57;83.30;99071.29;107084;1259;61206;-38
2024/03/19 07:44:08;;;;;;;2.80;2.50;;;;;;;2.67;83.05;99073.70;107076;1262;74829;-37
2024/03/19 07:46:35;;;;;;;3.10;2.80;;;;;;;2.70;83.10;99078.10;107079;1262;68035;-38
2024/03/19 07:49:03;;;;;;;3.30;3.00;;;;;;;2.73;83.22;99086.60;107028;1257;72779;-38
2024/03/19 07:51:31;;;;;;;3.40;3.10;;;;;;;2.78;83.25;99086.89;107020;1257;61461;-37
2024/03/19 07:53:59;;;;;;;3.10;2.60;;;;;;;2.78;82.67;99088.50;107065;1262;60398;-37
2024/03/19 07:56:30;;;;;;;3.70;2.90;;;;;;;2.91;82.30;99095.96;107169;1261;75048;-38
2024/03/19 07:58:57;;;;;;;3.30;3.00;;;;;;;2.97;82.25;99100.15;107231;1257;66846;-37
2024/03/19 08:01:25;;;;;;;5.30;3.30;;;;;;;3.01;82.13;99105.75;107176;1258;71531;-37
2024/03/19 08:03:53;;;;;;;3.80;3.40;;;;;;;3.02;81.96;99108.56;107056;1262;61274;-37
2024/03/19 08:06:27;;;;;;;3.30;2.90;;;;;;;3.05;81.36;99110.84;107107;1257;61130;-37
2024/03/19 08:08:55;;;;;;;3.70;2.90;;;;;;;3.14;81.13;99114.16;107082;1259;74821;-37
2024/03/19 08:11:23;;;;;;;3.30;3.00;;;;;;;3.17;80.94;99115.23;107065;1257;67949;-37
2024/03/19 08:13:50;;;;;;;3.80;3.40;;;;;;;3.19;80.82;99119.34;107029;1257;70929;-37
2024/03/19 08:16:18;;;;;;;4.00;3.60;;;;;;;3.23;80.80;99126.73;107074;1262;61090;-37
2024/03/19 08:18:48;;;;;;;3.10;2.80;;;;;;;3.22;80.32;99131.24;107066;1256;61174;-37
2024/03/19 08:21:15;;;;;;;3.90;3.10;;;;;;;3.30;80.11;99134.55;107092;1258;75114;-37
2024/03/19 08:23:46;;;;;;;3.20;2.90;;;;;;;3.33;80.10;99141.36;107071;1258;68182;-38
2024/03/19 08:26:17;;;;;;;4.00;3.60;;;;;;;3.34;80.38;99148.83;107106;1259;71515;-37
2024/03/19 08:28:46;;;;;;;4.30;3.90;;;;;;;3.37;80.42;99152.55;107085;1258;59704;-37
2024/03/19 08:31:13;;;;;;;3.90;3.50;;;;;;;3.39;79.98;99157.68;107057;1262;61393;-37
2024/03/19 08:33:40;;;;;;;3.50;3.20;;;;;;;3.50;79.54;99160.03;107079;1258;75090;-37
2024/03/19 08:36:08;;;;;;;3.70;3.30;;;;;;;3.63;79.42;99164.70;107164;1261;68077;-37
2024/03/19 08:38:35;;;;;;;4.50;3.80;;;;;;;3.67;79.18;99167.33;107173;1262;72807;-37
2024/03/19 08:41:06;;;;;;;5.50;4.30;;;;;;;3.71;78.98;99168.64;107060;1261;59964;-37
2024/03/19 08:43:33;;;;;;;4.50;4.10;;;;;;;3.74;78.99;99165.20;107038;1258;62246;-37
2024/03/19 08:46:01;;;;;;;4.30;3.90;;;;;;;3.80;78.48;99165.30;107035;1262;76865;-38
2024/03/19 08:48:28;;;;;;;5.30;3.70;;;;;;;3.93;77.79;99168.67;107007;1258;69850;-37
2024/03/19 08:50:57;;;;;;;4.00;3.50;;;;;;;4.06;77.36;99170.97;106897;1263;74894;-37
2024/03/19 08:53:24;;;;;;;4.20;3.70;;;;;;;4.09;76.26;99173.69;107070;1257;61222;-37
2024/03/19 08:55:56;;;;;;;4.70;4.00;;;;;;;4.10;76.46;99172.30;107197;1262;61114;-37
2024/03/19 08:58:23;;;;;;;4.50;3.90;;;;;;;4.15;76.63;99179.31;107080;1258;73518;-37
2024/03/19 09:00:52;;;;;;;4.30;3.60;;;;;;;4.23;76.50;99183.95;107133;1257;68145;-37
2024/03/19 09:03:19;;;;;;;4.10;3.60;;;;;;;4.37;75.55;99183.68;107061;1257;71241;-37
2024/03/19 09:05:46;;;;;;;4.00;3.50;;;;;;;4.44;73.51;99190.48;107118;1260;62188;-37
2024/03/19 09:08:14;;;;;;;4.70;4.00;;;;;;;4.50;74.25;99192.69;106961;1258;61221;-37
2024/03/19 09:10:42;;;;;;;5.00;3.60;;;;;;;4.64;72.95;99199.79;106340;1262;1003597;-37
2024/03/19 09:13:09;;;;;;;3.80;3.50;;;;;;;4.75;72.15;99194.55;107091;1258;66576;-37
2024/03/19 09:15:37;;;;;;;4.10;3.70;;;;;;;4.80;71.76;99202.16;107059;1262;73664;-37
2024/03/19 09:18:06;;;;;;;4.00;3.60;;;;;;;4.82;71.46;99209.61;107064;1262;61387;-37
2024/03/19 09:20:34;;;;;;;3.80;3.40;;;;;;;4.88;71.77;99211.89;107070;1258;61800;-37
2024/03/19 09:23:01;;;;;;;3.80;3.10;;;;;;;5.02;72.03;99218.44;107062;1257;75203;-37
2024/03/19 09:25:29;;;;;;;3.90;3.50;;;;;;;5.13;71.22;99225.13;107034;1262;70071;-37
2024/03/19 09:27:57;;;;;;;4.10;3.60;;;;;;;5.15;70.61;99226.09;107066;1262;73112;-37
2024/03/19 09:30:25;;;;;;;4.70;3.80;;;;;;;5.15;70.80;99228.84;107087;1260;61467;-38
2024/03/19 09:32:55;;;;;;;4.50;4.10;;;;;;;5.15;70.43;99235.36;107091;1260;60453;-37
2024/03/19 09:35:23;;;;;;;3.70;3.40;;;;;;;5.12;69.78;99236.48;107099;1257;73893;-37
2024/03/19 09:37:51;;;;;;;4.60;3.60;;;;;;;5.08;69.03;99242.39;107110;1257;68436;-37
2024/03/19 09:40:19;;;;;;;5.10;3.50;;;;;;;5.07;69.58;99242.37;107096;1262;75040;-37
2024/03/19 09:42:46;;;;;;;3.90;3.50;;;;;;;5.14;69.94;99246.62;106919;1260;61270;-37
2024/03/19 09:45:29;;;;;;;4.10;3.40;;;;;;;5.22;69.52;99252.22;107090;1257;60978;-37
2024/03/19 09:47:57;;;;;;;3.80;3.50;;;;;;;5.26;69.58;99254.30;107069;1257;76793;-38
2024/03/19 09:50:25;;;;;;;3.80;3.10;;;;;;;5.35;68.26;99257.23;107118;1258;68461;-37
2024/03/19 09:52:53;;;;;;;3.50;2.80;;;;;;;5.41;67.21;99255.69;107141;1260;75004;-37
2024/03/19 09:55:22;;;;;;;3.40;3.00;;;;;;;5.46;66.05;99253.05;107152;1259;61229;-38
2024/03/19 09:57:50;;;;;;;6.20;3.20;;;;;;;5.48;65.56;99248.66;107211;1258;61233;-37
2024/03/19 10:00:22;;;;;;;4.90;3.50;;;;;;;5.62;66.73;99252.95;107129;1262;75056;-38
2024/03/19 10:02:49;;;;;;;4.10;2.90;;;;;;;5.83;65.88;99248.02;107073;1262;68063;-37
2024/03/19 10:05:17;;;;;;;4.50;3.00;;;;;;;6.05;64.72;99250.98;107100;1259;72851;-38
2024/03/19 10:07:46;;;;;;;4.70;3.60;;;;;;;6.25;63.71;99252.13;107186;1258;61390;-38
2024/03/19 10:10:15;;;;;;;3.80;3.40;;;;;;;6.39;63.25;99258.29;107129;1257;60982;-38
2024/03/19 10:12:43;;;;;;;4.10;3.20;;;;;;;6.48;62.33;99259.98;107107;1258;74885;-38
2024/03/19 10:15:20;;;;;;;3.60;3.20;;;;;;;6.60;62.34;99268.44;107184;1263;66742;-38
2024/03/19 10:17:48;;;;;;;3.50;2.80;;;;;;;6.69;61.05;99273.67;107023;1259;74750;-38
2024/03/19 10:20:16;;;;;;;3.20;2.90;;;;;;;6.72;60.04;99273.09;107170;1262;61115;-37
2024/03/19 10:22:45;;;;;;;4.20;3.40;;;;;;;6.72;61.26;99276.70;107115;1261;61293;-38
2024/03/19 10:25:14;;;;;;;3.50;3.10;;;;;;;6.70;61.09;99281.56;107051;1263;73497;-38
2024/03/19 10:27:49;;;;;;;4.40;3.40;;;;;;;6.68;61.56;99283.40;107078;1262;70163;-38
2024/03/19 10:30:21;;;;;;;3.30;3.00;;;;;;;6.58;61.74;99287.94;107064;1259;74933;-37
2024/03/19 10:32:52;;;;;;;3.70;3.30;;;;;;;6.53;61.96;99290.02;107123;1257;61474;-37
2024/03/19 10:35:23;;;;;;;4.30;3.60;;;;;;;6.52;61.97;99289.59;107258;1262;61103;-38
2024/03/19 10:37:51;;;;;;;3.20;2.80;;;;;;;6.48;63.06;99291.77;107249;1257;73516;-38
2024/03/19 10:40:20;;;;;;;4.00;3.10;;;;;;;6.51;62.17;99293.85;107157;1258;68229;-38
2024/03/19 10:42:48;;;;;;;3.00;2.70;;;;;;;6.53;61.14;99293.32;107122;1257;71712;-38
2024/03/19 10:45:22;;;;;;;3.70;3.20;;;;;;;6.50;61.29;99295.98;107093;1258;61000;-38
2024/03/19 10:47:52;;;;;;;3.20;2.80;;;;;;;6.49;60.71;99295.77;107142;1259;61068;-37
2024/03/19 10:50:20;;;;;;;;;;;;;;;6.50;60.31;99303.37;107167;1257;75087;-37
2024/03/19 10:53:07;;;;;;;3.40;3.00;;;;;;;6.53;59.93;99301.02;107102;1257;67254;-37
2024/03/19 10:55:36;;;;;;;4.50;3.50;;;;;;;6.63;60.98;99308.48;107101;1257;73042;-37
2024/03/19 10:58:10;;;;;;;4.20;3.60;;;;;;;6.76;61.51;99310.40;107113;1257;60400;-37
2024/03/19 11:00:41;;;;;;;4.00;3.40;;;;;;;6.94;61.68;99313.77;107176;1257;61323;-37
2024/03/19 11:03:15;;;;;;;5.50;3.50;;;;;;;7.15;60.82;99316.64;107085;1259;73568;-37
2024/03/19 11:05:46;;;;;;;4.20;3.50;;;;;;;7.25;60.56;99315.14;107131;1257;70191;-37
2024/03/19 11:08:17;;;;;;;3.90;3.50;;;;;;;7.27;60.29;99315.04;107119;1257;71541;-37
2024/03/19 11:10:44;;;;;;;4.40;3.80;;;;;;;7.19;60.43;99319.17;107148;1257;61238;-37
2024/03/19 11:13:17;;;;;;;4.30;3.70;;;;;;;7.14;61.18;99317.48;107126;1257;61564;-37
2024/03/19 11:15:45;;;;;;;4.40;3.50;;;;;;;7.16;60.52;99321.77;107157;1262;75098;-37
2024/03/19 11:18:12;;;;;;;4.50;3.10;;;;;;;7.30;60.39;99320.08;107088;1257;68461;-37
2024/03/19 11:20:47;;;;;;;3.90;3.00;;;;;;;7.64;59.16;99319.46;107056;1258;71525;-37
2024/03/19 11:23:16;;;;;;;4.10;3.30;;;;;;;7.87;57.73;99320.60;107121;1261;61240;-37
2024/03/19 11:25:46;;;;;;;3.50;3.20;;;;;;;7.88;57.07;99319.69;107166;1257;62281;-37
2024/03/19 11:28:33;;;;;;;3.00;2.70;;;;;;;7.79;57.31;99320.38;107106;1257;74827;-37
2024/03/19 11:31:02;;;;;;;3.50;3.00;;;;;;;7.76;57.70;99319.59;107101;1263;66872;-37
2024/03/19 11:33:32;;;;;;;4.10;3.20;;;;;;;7.77;57.36;99320.25;107172;1260;72932;-37
2024/03/19 11:36:00;;;;;;;3.40;3.10;;;;;;;7.69;57.39;99325.01;107165;1261;61862;-37
2024/03/19 11:38:29;;;;;;;3.50;3.20;;;;;;;7.65;57.83;99331.35;107130;1257;62210;-38
2024/03/19 11:40:58;;;;;;;3.90;3.10;;;;;;;7.57;58.05;99331.95;107047;1258;73518;-38